sensor_id;sensor_type;location;lat;lon;timestamp;pressure;altitude;pressure_sealevel;temperature;humidity
33155;BME280;19511;42.682;23.332;2023-06-01T00:02:04;95363.19;;;13.04;100.00
33155;BME280;19511;42.682;23.332;2023-06-01T00:04:30;95349.31;;;13.04;100.00
33155;BME280;19511;42.682;23.332;2023-06-01T00:06:55;95343.91;;;12.94;100.00
33155;BME280;19511;42.682;23.332;2023-06-01T00:09:21;95347.84;;;12.96;100.00
33155;BME280;19511;42.682;23.332;2023-06-01T00:11:47;95272.94;;;12.41;100.00
33155;BME280;19511;42.682;23.332;2023-06-01T00:14:12;95343.09;;;12.97;100.00
33155;BME280;19511;42.682;23.332;2023-06-01T00:16:37;95313.22;;;12.77;100.00
33155;BME280;19511;42.682;23.332;2023-06-01T00:19:03;95352.50;;;13.03;100.00
33155;BME280;19511;42.682;23.332;2023-06-01T00:21:32;95357.25;;;13.02;100.00
33155;BME280;19511;42.682;23.332;2023-06-01T00:24:01;95359.69;;;13.00;100.00
33155;BME280;19511;42.682;23.332;2023-06-01T00:26:27;95359.69;;;13.00;100.00
33155;BME280;19511;42.682;23.332;2023-06-01T00:28:55;95346.38;;;12.88;100.00
33155;BME280;19511;42.682;23.332;2023-06-01T00:31:26;95354.00;;;12.84;100.00
33155;BME280;19511;42.682;23.332;2023-06-01T00:33:52;95363.41;;;12.90;100.00
33155;BME280;19511;42.682;23.332;2023-06-01T00:36:18;95285.28;;;12.40;100.00
33155;BME280;19511;42.682;23.332;2023-06-01T00:38:48;95258.28;;;12.14;100.00
33155;BME280;19511;42.682;23.332;2023-06-01T00:41:17;95362.38;;;12.80;100.00
33155;BME280;19511;42.682;23.332;2023-06-01T00:43:50;95357.34;;;12.71;100.00
33155;BME280;19511;42.682;23.332;2023-06-01T00:46:16;95348.38;;;12.60;100.00
33155;BME280;19511;42.682;23.332;2023-06-01T00:48:46;95353.84;;;12.67;100.00
33155;BME280;19511;42.682;23.332;2023-06-01T00:51:15;95357.81;;;12.66;100.00
33155;BME280;19511;42.682;23.332;2023-06-01T00:53:41;95355.50;;;12.61;100.00
33155;BME280;19511;42.682;23.332;2023-06-01T00:56:08;95282.38;;;12.20;100.00
33155;BME280;19511;42.682;23.332;2023-06-01T00:58:34;95347.91;;;12.65;100.00
33155;BME280;19511;42.682;23.332;2023-06-01T01:01:00;95296.94;;;12.28;100.00
33155;BME280;19511;42.682;23.332;2023-06-01T01:03:26;95345.63;;;12.60;100.00
33155;BME280;19511;42.682;23.332;2023-06-01T01:06:21;95369.28;;;12.68;100.00
33155;BME280;19511;42.682;23.332;2023-06-01T01:11:24;95348.78;;;12.62;100.00
33155;BME280;19511;42.682;23.332;2023-06-01T01:19:53;95364.19;;;12.63;100.00
33155;BME280;19511;42.682;23.332;2023-06-01T01:25:42;95368.44;;;12.71;100.00
33155;BME280;19511;42.682;23.332;2023-06-01T01:28:49;95376.44;;;12.66;100.00
33155;BME280;19511;42.682;23.332;2023-06-01T01:31:26;95373.78;;;12.58;100.00
33155;BME280;19511;42.682;23.332;2023-06-01T01:33:57;95361.63;;;12.49;100.00
33155;BME280;19511;42.682;23.332;2023-06-01T01:36:24;95291.00;;;11.99;100.00
33155;BME280;19511;42.682;23.332;2023-06-01T01:38:50;95373.16;;;12.47;100.00
33155;BME280;19511;42.682;23.332;2023-06-01T01:41:15;95369.06;;;12.55;100.00
33155;BME280;19511;42.682;23.332;2023-06-01T01:43:41;95301.50;;;12.11;100.00
33155;BME280;19511;42.682;23.332;2023-06-01T01:46:18;95369.06;;;12.55;100.00
33155;BME280;19511;42.682;23.332;2023-06-01T01:49:10;95366.63;;;12.61;100.00
33155;BME280;19511;42.682;23.332;2023-06-01T01:51:39;95371.38;;;12.61;100.00
33155;BME280;19511;42.682;23.332;2023-06-01T01:54:07;95365.50;;;12.55;100.00
33155;BME280;19511;42.682;23.332;2023-06-01T01:56:38;95364.94;;;12.67;100.00
33155;BME280;19511;42.682;23.332;2023-06-01T01:59:05;95384.69;;;12.73;100.00
33155;BME280;19511;42.682;23.332;2023-06-01T02:01:32;95313.94;;;12.30;100.00
33155;BME280;19511;42.682;23.332;2023-06-01T02:04:04;95297.50;;;12.16;100.00
33155;BME280;19511;42.682;23.332;2023-06-01T02:06:35;95342.69;;;12.44;100.00
33155;BME280;19511;42.682;23.332;2023-06-01T02:09:03;95372.84;;;12.69;100.00
33155;BME280;19511;42.682;23.332;2023-06-01T02:11:35;95378.31;;;12.76;100.00
33155;BME280;19511;42.682;23.332;2023-06-01T02:14:09;95361.75;;;12.69;100.00
33155;BME280;19511;42.682;23.332;2023-06-01T02:16:38;95369.69;;;12.67;100.00
33155;BME280;19511;42.682;23.332;2023-06-01T02:19:10;95302.84;;;12.30;100.00
33155;BME280;19511;42.682;23.332;2023-06-01T02:21:36;95364.78;;;12.78;100.00
33155;BME280;19511;42.682;23.332;2023-06-01T02:24:01;95309.13;;;12.34;100.00
33155;BME280;19511;42.682;23.332;2023-06-01T02:26:30;95387.31;;;12.84;100.00
33155;BME280;19511;42.682;23.332;2023-06-01T02:28:56;95386.94;;;12.82;100.00
33155;BME280;19511;42.682;23.332;2023-06-01T02:31:22;95373.91;;;12.79;100.00
33155;BME280;19511;42.682;23.332;2023-06-01T02:33:48;95372.75;;;12.76;100.00
33155;BME280;19511;42.682;23.332;2023-06-01T02:36:14;95369.50;;;12.81;100.00
33155;BME280;19511;42.682;23.332;2023-06-01T02:38:42;95368.28;;;12.82;100.00
33155;BME280;19511;42.682;23.332;2023-06-01T02:41:07;95376.56;;;12.86;100.00
33155;BME280;19511;42.682;23.332;2023-06-01T02:43:36;95385.94;;;12.96;100.00
33155;BME280;19511;42.682;23.332;2023-06-01T02:46:02;95384.06;;;12.89;100.00
33155;BME280;19511;42.682;23.332;2023-06-01T02:48:30;95374.56;;;12.86;100.00
33155;BME280;19511;42.682;23.332;2023-06-01T02:50:56;95374.97;;;12.85;100.00
33155;BME280;19511;42.682;23.332;2023-06-01T02:53:24;95386.69;;;12.96;100.00
33155;BME280;19511;42.682;23.332;2023-06-01T02:55:56;95387.06;;;12.98;100.00
33155;BME280;19511;42.682;23.332;2023-06-01T02:58:21;95393.09;;;12.93;100.00
33155;BME280;19511;42.682;23.332;2023-06-01T03:00:55;95381.28;;;12.89;100.00
33155;BME280;19511;42.682;23.332;2023-06-01T03:03:20;95303.47;;;12.41;100.00
33155;BME280;19511;42.682;23.332;2023-06-01T03:05:46;95365.09;;;12.84;100.00
33155;BME280;19511;42.682;23.332;2023-06-01T03:08:13;95357.25;;;12.79;100.00
33155;BME280;19511;42.682;23.332;2023-06-01T03:10:38;95359.50;;;12.87;100.00
33155;BME280;19511;42.682;23.332;2023-06-01T03:13:04;95373.31;;;12.91;100.00
33155;BME280;19511;42.682;23.332;2023-06-01T03:15:33;95358.44;;;12.78;100.00
33155;BME280;19511;42.682;23.332;2023-06-01T03:18:00;95369.81;;;12.87;100.00
33155;BME280;19511;42.682;23.332;2023-06-01T03:20:30;95371.44;;;12.84;100.00
33155;BME280;19511;42.682;23.332;2023-06-01T03:22:55;95373.06;;;12.82;100.00
33155;BME280;19511;42.682;23.332;2023-06-01T03:25:28;95383.69;;;12.87;100.00
33155;BME280;19511;42.682;23.332;2023-06-01T03:27:53;95382.84;;;12.90;100.00
33155;BME280;19511;42.682;23.332;2023-06-01T03:30:19;95314.09;;;12.47;100.00
33155;BME280;19511;42.682;23.332;2023-06-01T03:32:45;95373.44;;;12.84;100.00
33155;BME280;19511;42.682;23.332;2023-06-01T03:35:12;95370.22;;;12.85;100.00
33155;BME280;19511;42.682;23.332;2023-06-01T03:37:39;95295.63;;;12.36;100.00
33155;BME280;19511;42.682;23.332;2023-06-01T03:40:05;95371.75;;;12.90;100.00
33155;BME280;19511;42.682;23.332;2023-06-01T03:42:44;95364.25;;;12.87;100.00
33155;BME280;19511;42.682;23.332;2023-06-01T03:45:14;95373.97;;;12.99;100.00
33155;BME280;19511;42.682;23.332;2023-06-01T03:47:44;95370.19;;;12.89;100.00
33155;BME280;19511;42.682;23.332;2023-06-01T03:50:10;95379.81;;;12.81;100.00
33155;BME280;19511;42.682;23.332;2023-06-01T03:52:40;95380.44;;;12.92;100.00
33155;BME280;19511;42.682;23.332;2023-06-01T03:55:06;95374.19;;;13.12;100.00
33155;BME280;19511;42.682;23.332;2023-06-01T03:57:39;95373.81;;;13.10;100.00
33155;BME280;19511;42.682;23.332;2023-06-01T04:00:05;95365.38;;;13.17;100.00
33155;BME280;19511;42.682;23.332;2023-06-01T04:02:48;95328.16;;;12.87;100.00
33155;BME280;19511;42.682;23.332;2023-06-01T04:05:15;95394.75;;;13.42;100.00
33155;BME280;19511;42.682;23.332;2023-06-01T04:07:47;95392.03;;;13.34;100.00
33155;BME280;19511;42.682;23.332;2023-06-01T04:10:13;95390.84;;;13.35;100.00
33155;BME280;19511;42.682;23.332;2023-06-01T04:12:40;95388.56;;;13.30;100.00
33155;BME280;19511;42.682;23.332;2023-06-01T04:15:07;95382.22;;;13.30;100.00
33155;BME280;19511;42.682;23.332;2023-06-01T04:17:35;95370.78;;;13.24;100.00
33155;BME280;19511;42.682;23.332;2023-06-01T04:20:01;95320.25;;;12.85;100.00
33155;BME280;19511;42.682;23.332;2023-06-01T04:22:26;95373.56;;;13.24;100.00
33155;BME280;19511;42.682;23.332;2023-06-01T04:24:52;95392.06;;;13.58;100.00
33155;BME280;19511;42.682;23.332;2023-06-01T04:27:17;95392.41;;;13.84;100.00
33155;BME280;19511;42.682;23.332;2023-06-01T04:29:43;95388.88;;;14.03;100.00
33155;BME280;19511;42.682;23.332;2023-06-01T04:32:09;95376.22;;;13.99;100.00
33155;BME280;19511;42.682;23.332;2023-06-01T04:34:37;95395.28;;;14.00;100.00
33155;BME280;19511;42.682;23.332;2023-06-01T04:37:03;95391.44;;;13.94;100.00
33155;BME280;19511;42.682;23.332;2023-06-01T04:39:30;95401.81;;;13.90;100.00
33155;BME280;19511;42.682;23.332;2023-06-01T04:41:55;95387.34;;;13.99;100.00
33155;BME280;19511;42.682;23.332;2023-06-01T04:44:22;95326.91;;;13.39;100.00
33155;BME280;19511;42.682;23.332;2023-06-01T04:46:48;95338.41;;;13.41;100.00
33155;BME280;19511;42.682;23.332;2023-06-01T04:49:15;95392.16;;;13.98;100.00
33155;BME280;19511;42.682;23.332;2023-06-01T04:51:44;95405.84;;;13.89;100.00
33155;BME280;19511;42.682;23.332;2023-06-01T04:54:14;95396.53;;;13.76;100.00
33155;BME280;19511;42.682;23.332;2023-06-01T04:56:44;95403.66;;;13.77;100.00
33155;BME280;19511;42.682;23.332;2023-06-01T04:59:13;95402.22;;;13.68;100.00
33155;BME280;19511;42.682;23.332;2023-06-01T05:01:42;95405.09;;;13.85;100.00
33155;BME280;19511;42.682;23.332;2023-06-01T05:04:07;95347.97;;;13.36;100.00
33155;BME280;19511;42.682;23.332;2023-06-01T05:06:33;95335.78;;;13.54;100.00
33155;BME280;19511;42.682;23.332;2023-06-01T05:08:58;95392.22;;;13.95;100.00
33155;BME280;19511;42.682;23.332;2023-06-01T05:11:24;95413.53;;;14.01;100.00
33155;BME280;19511;42.682;23.332;2023-06-01T05:13:49;95410.41;;;13.99;100.00
33155;BME280;19511;42.682;23.332;2023-06-01T05:16:16;95410.91;;;14.14;100.00
33155;BME280;19511;42.682;23.332;2023-06-01T05:18:42;95402.28;;;14.09;100.00
33155;BME280;19511;42.682;23.332;2023-06-01T05:21:07;95354.16;;;13.92;100.00
33155;BME280;19511;42.682;23.332;2023-06-01T05:23:33;95397.72;;;14.18;100.00
33155;BME280;19511;42.682;23.332;2023-06-01T05:25:58;95407.47;;;14.27;100.00
33155;BME280;19511;42.682;23.332;2023-06-01T05:28:31;95401.63;;;14.41;100.00
33155;BME280;19511;42.682;23.332;2023-06-01T05:30:57;95387.84;;;14.54;100.00
33155;BME280;19511;42.682;23.332;2023-06-01T05:33:26;95405.31;;;14.75;100.00
33155;BME280;19511;42.682;23.332;2023-06-01T05:36:03;95395.94;;;14.85;100.00
33155;BME280;19511;42.682;23.332;2023-06-01T05:38:28;95396.84;;;14.98;100.00
33155;BME280;19511;42.682;23.332;2023-06-01T05:40:55;95389.19;;;15.02;100.00
33155;BME280;19511;42.682;23.332;2023-06-01T05:43:24;95388.66;;;15.08;100.00
33155;BME280;19511;42.682;23.332;2023-06-01T05:45:52;95396.34;;;15.20;100.00
33155;BME280;19511;42.682;23.332;2023-06-01T05:48:18;95330.16;;;14.91;100.00
33155;BME280;19511;42.682;23.332;2023-06-01T05:50:52;95391.44;;;15.41;100.00
33155;BME280;19511;42.682;23.332;2023-06-01T05:53:17;95396.13;;;15.60;100.00
33155;BME280;19511;42.682;23.332;2023-06-01T05:55:48;95393.69;;;15.62;100.00
33155;BME280;19511;42.682;23.332;2023-06-01T05:58:14;95387.88;;;15.57;100.00
33155;BME280;19511;42.682;23.332;2023-06-01T06:00:43;95390.22;;;15.58;100.00
33155;BME280;19511;42.682;23.332;2023-06-01T06:03:08;95400.13;;;15.76;100.00
33155;BME280;19511;42.682;23.332;2023-06-01T06:05:37;95395.78;;;15.91;100.00
33155;BME280;19511;42.682;23.332;2023-06-01T06:08:06;95400.63;;;16.04;100.00
33155;BME280;19511;42.682;23.332;2023-06-01T06:10:39;95400.22;;;16.18;100.00
33155;BME280;19511;42.682;23.332;2023-06-01T06:13:07;95395.03;;;16.33;100.00
33155;BME280;19511;42.682;23.332;2023-06-01T06:15:36;95389.09;;;16.31;100.00
33155;BME280;19511;42.682;23.332;2023-06-01T06:18:02;95392.03;;;16.11;100.00
33155;BME280;19511;42.682;23.332;2023-06-01T06:20:30;95392.72;;;16.15;100.00
33155;BME280;19511;42.682;23.332;2023-06-01T06:22:55;95395.25;;;16.39;100.00
33155;BME280;19511;42.682;23.332;2023-06-01T06:25:24;95382.13;;;16.52;100.00
33155;BME280;19511;42.682;23.332;2023-06-01T06:27:49;95396.00;;;16.69;100.00
33155;BME280;19511;42.682;23.332;2023-06-01T06:30:19;95388.50;;;16.65;100.00
33155;BME280;19511;42.682;23.332;2023-06-01T06:32:45;95391.97;;;16.70;100.00
33155;BME280;19511;42.682;23.332;2023-06-01T06:35:10;95397.78;;;16.88;100.00
33155;BME280;19511;42.682;23.332;2023-06-01T06:37:41;95401.44;;;17.02;100.00
33155;BME280;19511;42.682;23.332;2023-06-01T06:40:09;95387.34;;;17.18;100.00
33155;BME280;19511;42.682;23.332;2023-06-01T06:42:34;95332.69;;;16.91;100.00
33155;BME280;19511;42.682;23.332;2023-06-01T06:45:00;95391.00;;;17.41;100.00
33155;BME280;19511;42.682;23.332;2023-06-01T06:47:26;95387.38;;;17.66;100.00
33155;BME280;19511;42.682;23.332;2023-06-01T06:49:52;95369.78;;;17.66;100.00
33155;BME280;19511;42.682;23.332;2023-06-01T06:52:18;95366.66;;;17.76;100.00
33155;BME280;19511;42.682;23.332;2023-06-01T06:54:43;95382.47;;;17.92;100.00
33155;BME280;19511;42.682;23.332;2023-06-01T06:57:09;95371.84;;;17.52;100.00
33155;BME280;19511;42.682;23.332;2023-06-01T06:59:36;95369.75;;;17.43;100.00
33155;BME280;19511;42.682;23.332;2023-06-01T07:02:02;95375.72;;;17.68;100.00
33155;BME280;19511;42.682;23.332;2023-06-01T07:04:28;95322.41;;;17.49;100.00
33155;BME280;19511;42.682;23.332;2023-06-01T07:06:54;95377.88;;;17.99;100.00
33155;BME280;19511;42.682;23.332;2023-06-01T07:09:20;95332.13;;;17.57;100.00
33155;BME280;19511;42.682;23.332;2023-06-01T07:11:46;95371.47;;;18.11;100.00
33155;BME280;19511;42.682;23.332;2023-06-01T07:14:14;95374.13;;;18.15;100.00
33155;BME280;19511;42.682;23.332;2023-06-01T07:16:40;95368.06;;;18.38;100.00
33155;BME280;19511;42.682;23.332;2023-06-01T07:19:07;95369.34;;;18.24;100.00
33155;BME280;19511;42.682;23.332;2023-06-01T07:21:32;95377.75;;;18.24;100.00
33155;BME280;19511;42.682;23.332;2023-06-01T07:23:58;95361.28;;;18.26;100.00
33155;BME280;19511;42.682;23.332;2023-06-01T07:26:23;95329.06;;;18.00;100.00
33155;BME280;19511;42.682;23.332;2023-06-01T07:28:52;95366.69;;;17.99;100.00
33155;BME280;19511;42.682;23.332;2023-06-01T07:31:19;95304.59;;;17.56;100.00
33155;BME280;19511;42.682;23.332;2023-06-01T07:33:44;95361.03;;;17.76;100.00
33155;BME280;19511;42.682;23.332;2023-06-01T07:36:10;95370.28;;;17.86;100.00
33155;BME280;19511;42.682;23.332;2023-06-01T07:38:36;95371.06;;;18.00;100.00
33155;BME280;19511;42.682;23.332;2023-06-01T07:41:02;95364.34;;;18.19;100.00
33155;BME280;19511;42.682;23.332;2023-06-01T07:43:28;95358.63;;;18.45;100.00
33155;BME280;19511;42.682;23.332;2023-06-01T07:45:57;95357.91;;;18.32;100.00
33155;BME280;19511;42.682;23.332;2023-06-01T07:48:26;95357.44;;;18.55;100.00
33155;BME280;19511;42.682;23.332;2023-06-01T07:50:52;95353.72;;;18.58;100.00
33155;BME280;19511;42.682;23.332;2023-06-01T07:53:17;95339.66;;;18.81;100.00
33155;BME280;19511;42.682;23.332;2023-06-01T07:55:43;95338.94;;;18.89;100.00
33155;BME280;19511;42.682;23.332;2023-06-01T07:58:12;95278.94;;;18.46;100.00
33155;BME280;19511;42.682;23.332;2023-06-01T08:00:38;95327.59;;;18.93;100.00
33155;BME280;19511;42.682;23.332;2023-06-01T08:03:03;95336.84;;;19.12;100.00
33155;BME280;19511;42.682;23.332;2023-06-01T08:05:35;95336.44;;;19.32;100.00
33155;BME280;19511;42.682;23.332;2023-06-01T08:08:01;95337.56;;;19.53;100.00
33155;BME280;19511;42.682;23.332;2023-06-01T08:10:27;95271.47;;;19.43;100.00
33155;BME280;19511;42.682;23.332;2023-06-01T08:12:52;95328.28;;;19.94;100.00
33155;BME280;19511;42.682;23.332;2023-06-01T08:15:22;95333.25;;;20.17;100.00
33155;BME280;19511;42.682;23.332;2023-06-01T08:17:49;95331.03;;;20.31;100.00
33155;BME280;19511;42.682;23.332;2023-06-01T08:20:16;95326.66;;;20.39;100.00
33155;BME280;19511;42.682;23.332;2023-06-01T08:22:46;95321.00;;;20.58;100.00
33155;BME280;19511;42.682;23.332;2023-06-01T08:25:13;95320.66;;;20.74;100.00
33155;BME280;19511;42.682;23.332;2023-06-01T08:27:44;95313.16;;;20.62;100.00
33155;BME280;19511;42.682;23.332;2023-06-01T08:30:11;95306.44;;;20.78;100.00
33155;BME280;19511;42.682;23.332;2023-06-01T08:32:37;95286.13;;;20.83;100.00
33155;BME280;19511;42.682;23.332;2023-06-01T08:35:04;95301.97;;;21.29;100.00
33155;BME280;19511;42.682;23.332;2023-06-01T08:37:30;95313.78;;;21.42;100.00
33155;BME280;19511;42.682;23.332;2023-06-01T08:39:59;95301.69;;;21.51;100.00
33155;BME280;19511;42.682;23.332;2023-06-01T08:45:13;95296.44;;;21.68;100.00
33155;BME280;19511;42.682;23.332;2023-06-01T08:47:40;95296.91;;;21.66;100.00
33155;BME280;19511;42.682;23.332;2023-06-01T08:50:14;95284.72;;;21.84;100.00
33155;BME280;19511;42.682;23.332;2023-06-01T08:52:43;95278.13;;;21.88;100.00
33155;BME280;19511;42.682;23.332;2023-06-01T08:55:14;95273.47;;;21.84;100.00
33155;BME280;19511;42.682;23.332;2023-06-01T08:57:47;95283.19;;;21.59;100.00
33155;BME280;19511;42.682;23.332;2023-06-01T09:00:16;95277.91;;;21.76;100.00
33155;BME280;19511;42.682;23.332;2023-06-01T09:02:48;95279.72;;;21.64;100.00
33155;BME280;19511;42.682;23.332;2023-06-01T09:05:17;95206.16;;;21.32;100.00
33155;BME280;19511;42.682;23.332;2023-06-01T09:07:43;95264.03;;;21.73;100.00
33155;BME280;19511;42.682;23.332;2023-06-01T09:10:13;95270.31;;;21.67;100.00
33155;BME280;19511;42.682;23.332;2023-06-01T09:12:51;95259.47;;;21.90;100.00
33155;BME280;19511;42.682;23.332;2023-06-01T09:15:18;95195.38;;;21.55;100.00
33155;BME280;19511;42.682;23.332;2023-06-01T09:18:04;95259.41;;;21.99;100.00
33155;BME280;19511;42.682;23.332;2023-06-01T09:20:34;95260.06;;;22.09;100.00
33155;BME280;19511;42.682;23.332;2023-06-01T09:23:03;95255.34;;;22.30;100.00
33155;BME280;19511;42.682;23.332;2023-06-01T09:25:30;95263.25;;;22.41;100.00
33155;BME280;19511;42.682;23.332;2023-06-01T09:28:02;95250.84;;;22.83;100.00
33155;BME280;19511;42.682;23.332;2023-06-01T09:30:39;95250.44;;;22.91;100.00
33155;BME280;19511;42.682;23.332;2023-06-01T09:33:16;95180.81;;;22.46;100.00
33155;BME280;19511;42.682;23.332;2023-06-01T09:35:46;95235.34;;;22.94;100.00
33155;BME280;19511;42.682;23.332;2023-06-01T09:38:23;95235.31;;;23.09;100.00
33155;BME280;19511;42.682;23.332;2023-06-01T09:41:02;95223.16;;;23.03;100.00
33155;BME280;19511;42.682;23.332;2023-06-01T09:43:28;95225.53;;;23.25;100.00
33155;BME280;19511;42.682;23.332;2023-06-01T09:46:08;95230.13;;;23.43;100.00
33155;BME280;19511;42.682;23.332;2023-06-01T09:48:37;95216.50;;;23.62;100.00
33155;BME280;19511;42.682;23.332;2023-06-01T09:51:02;95214.31;;;23.51;100.00
33155;BME280;19511;42.682;23.332;2023-06-01T09:53:39;95205.78;;;23.45;100.00
33155;BME280;19511;42.682;23.332;2023-06-01T09:56:06;95205.03;;;23.71;100.00
33155;BME280;19511;42.682;23.332;2023-06-01T09:58:31;95204.25;;;23.91;100.00
33155;BME280;19511;42.682;23.332;2023-06-01T10:01:00;95201.88;;;24.10;100.00
33155;BME280;19511;42.682;23.332;2023-06-01T10:03:27;95206.41;;;24.02;100.00
33155;BME280;19511;42.682;23.332;2023-06-01T10:05:57;95162.50;;;23.80;100.00
33155;BME280;19511;42.682;23.332;2023-06-01T10:08:29;95193.44;;;23.90;100.00
33155;BME280;19511;42.682;23.332;2023-06-01T10:10:56;95172.16;;;23.68;100.00
33155;BME280;19511;42.682;23.332;2023-06-01T10:13:21;95193.97;;;23.68;100.00
33155;BME280;19511;42.682;23.332;2023-06-01T10:15:53;95191.97;;;23.74;100.00
33155;BME280;19511;42.682;23.332;2023-06-01T10:18:20;95198.16;;;23.52;100.00
33155;BME280;19511;42.682;23.332;2023-06-01T10:20:46;95177.63;;;23.30;100.00
33155;BME280;19511;42.682;23.332;2023-06-01T10:23:17;95179.25;;;23.17;100.00
33155;BME280;19511;42.682;23.332;2023-06-01T10:25:46;95193.16;;;23.41;100.00
33155;BME280;19511;42.682;23.332;2023-06-01T10:28:13;95188.50;;;23.38;100.00
33155;BME280;19511;42.682;23.332;2023-06-01T10:30:41;95185.09;;;23.54;100.00
33155;BME280;19511;42.682;23.332;2023-06-01T10:33:07;95162.72;;;23.51;100.00
33155;BME280;19511;42.682;23.332;2023-06-01T10:40:40;95182.75;;;23.73;100.00
33155;BME280;19511;42.682;23.332;2023-06-01T10:46:02;95192.19;;;23.70;100.00
33155;BME280;19511;42.682;23.332;2023-06-01T10:48:51;95185.78;;;23.70;100.00
33155;BME280;19511;42.682;23.332;2023-06-01T10:51:19;95180.66;;;23.47;100.00
33155;BME280;19511;42.682;23.332;2023-06-01T10:53:46;95184.06;;;23.52;100.00
33155;BME280;19511;42.682;23.332;2023-06-01T10:56:23;95142.63;;;23.22;100.00
33155;BME280;19511;42.682;23.332;2023-06-01T11:01:39;95170.28;;;23.39;100.00
33155;BME280;19511;42.682;23.332;2023-06-01T11:04:06;95162.59;;;23.39;100.00
33155;BME280;19511;42.682;23.332;2023-06-01T11:06:34;95155.63;;;23.35;100.00
33155;BME280;19511;42.682;23.332;2023-06-01T11:09:04;95147.44;;;23.37;100.00
33155;BME280;19511;42.682;23.332;2023-06-01T11:14:25;95111.75;;;23.60;100.00
33155;BME280;19511;42.682;23.332;2023-06-01T11:16:54;95137.69;;;23.90;97.48
33155;BME280;19511;42.682;23.332;2023-06-01T11:19:26;95145.41;;;23.90;100.00
33155;BME280;19511;42.682;23.332;2023-06-01T11:21:56;95149.22;;;23.87;91.69
33155;BME280;19511;42.682;23.332;2023-06-01T11:24:31;95097.09;;;23.56;92.99
33155;BME280;19511;42.682;23.332;2023-06-01T11:26:59;95142.59;;;23.90;94.27
33155;BME280;19511;42.682;23.332;2023-06-01T11:29:29;95122.06;;;23.63;93.01
33155;BME280;19511;42.682;23.332;2023-06-01T11:31:57;95145.97;;;23.68;98.05
33155;BME280;19511;42.682;23.332;2023-06-01T11:34:35;95146.59;;;23.30;100.00
33155;BME280;19511;42.682;23.332;2023-06-01T11:37:12;95146.09;;;23.11;100.00
33155;BME280;19511;42.682;23.332;2023-06-01T11:39:39;95123.28;;;22.74;100.00
33155;BME280;19511;42.682;23.332;2023-06-01T11:42:08;95126.66;;;22.57;100.00
33155;BME280;19511;42.682;23.332;2023-06-01T11:44:37;95169.84;;;22.33;100.00
33155;BME280;19511;42.682;23.332;2023-06-01T11:47:03;95181.81;;;21.83;100.00
33155;BME280;19511;42.682;23.332;2023-06-01T11:49:39;95175.75;;;21.61;100.00
33155;BME280;19511;42.682;23.332;2023-06-01T11:52:08;95190.59;;;20.98;100.00
33155;BME280;19511;42.682;23.332;2023-06-01T11:54:34;95191.72;;;20.58;100.00
33155;BME280;19511;42.682;23.332;2023-06-01T11:57:03;95199.94;;;19.66;100.00
33155;BME280;19511;42.682;23.332;2023-06-01T11:59:54;95197.59;;;19.00;100.00
33155;BME280;19511;42.682;23.332;2023-06-01T12:02:21;95209.19;;;18.70;100.00
33155;BME280;19511;42.682;23.332;2023-06-01T12:05:00;95204.38;;;18.30;100.00
33155;BME280;19511;42.682;23.332;2023-06-01T12:07:51;95201.94;;;18.10;100.00
33155;BME280;19511;42.682;23.332;2023-06-01T12:10:18;95200.00;;;17.75;100.00
33155;BME280;19511;42.682;23.332;2023-06-01T12:12:45;95209.25;;;17.85;100.00
33155;BME280;19511;42.682;23.332;2023-06-01T12:15:19;95185.69;;;17.73;100.00
33155;BME280;19511;42.682;23.332;2023-06-01T12:17:50;95191.66;;;17.85;100.00
33155;BME280;19511;42.682;23.332;2023-06-01T12:20:29;95203.31;;;17.83;100.00
33155;BME280;19511;42.682;23.332;2023-06-01T12:22:55;95116.78;;;17.35;100.00
33155;BME280;19511;42.682;23.332;2023-06-01T12:25:28;95182.19;;;17.82;100.00
33155;BME280;19511;42.682;23.332;2023-06-01T12:28:07;95184.13;;;17.72;100.00
33155;BME280;19511;42.682;23.332;2023-06-01T12:30:35;95166.06;;;17.64;100.00
33155;BME280;19511;42.682;23.332;2023-06-01T12:33:02;95103.41;;;17.30;100.00
33155;BME280;19511;42.682;23.332;2023-06-01T12:35:31;95078.91;;;17.12;100.00
33155;BME280;19511;42.682;23.332;2023-06-01T12:38:09;95150.34;;;17.89;100.00
33155;BME280;19511;42.682;23.332;2023-06-01T12:40:36;95166.22;;;17.92;100.00
33155;BME280;19511;42.682;23.332;2023-06-01T12:43:03;95151.72;;;17.84;100.00
33155;BME280;19511;42.682;23.332;2023-06-01T12:45:38;95156.34;;;17.78;100.00
33155;BME280;19511;42.682;23.332;2023-06-01T12:48:05;95145.66;;;17.86;100.00
33155;BME280;19511;42.682;23.332;2023-06-01T12:50:30;95138.78;;;18.00;100.00
33155;BME280;19511;42.682;23.332;2023-06-01T12:52:56;95067.47;;;17.51;100.00
33155;BME280;19511;42.682;23.332;2023-06-01T12:55:22;95132.28;;;18.12;100.00
33155;BME280;19511;42.682;23.332;2023-06-01T12:57:54;95123.91;;;18.21;100.00
33155;BME280;19511;42.682;23.332;2023-06-01T13:00:20;95138.16;;;18.46;100.00
33155;BME280;19511;42.682;23.332;2023-06-01T13:02:46;95075.22;;;18.09;100.00
33155;BME280;19511;42.682;23.332;2023-06-01T13:05:14;95136.44;;;18.57;100.00
33155;BME280;19511;42.682;23.332;2023-06-01T13:07:46;95127.44;;;18.53;100.00
33155;BME280;19511;42.682;23.332;2023-06-01T13:10:12;95118.53;;;18.36;100.00
33155;BME280;19511;42.682;23.332;2023-06-01T13:12:38;95109.53;;;18.51;100.00
33155;BME280;19511;42.682;23.332;2023-06-01T13:15:10;95117.19;;;18.69;100.00
33155;BME280;19511;42.682;23.332;2023-06-01T13:17:41;95110.03;;;18.86;100.00